Flugplatz Dortmund

Bericht für EDLW

vom 25.09. um 08:20 UTC

Wind 12 kt aus 200°

Sichtweite 10 km oder mehr

gute Sicht, keine Wolken < 5000 ft, keine CB, keine Wettererscheinungen (CAVOK)

Temperatur 11.0°C

Taupunkt 6.0°C

Luftfeuchtigkeit 71%

Luftdruck 997 hPa

EDLW 250820Z 20012KT CAVOK 11/06 Q0997

Prognose für EDLW

vom 25.09. um 05:00 UTC

Zwischen 06:00 UTC und 16:00 UTC

Wind 11 kt aus 220°

Sichtweite 10 km oder mehr

aufgelockert bewölkt in 3500 ft


Zwischen 16:00 und 19:00 UTC übergehend zu

Wind 6 kt aus 170°

Sichtweite 10 km oder mehr

aufgelockert bewölkt in 3500 ft


Am 26.09. zwischen 02:00 und 05:00 UTC übergehend zu

Wind 5 kt aus 20°

Sichtweite 10 km oder mehr

aufgelockert bewölkt in 3500 ft

TAF EDLW 250500Z 2506/2606 22011KT 9999 SCT035 BECMG 2516/2519 17006KT BECMG 2602/2605 02005KT
Impressum